Gulf, NC (27256)

2:28 PM EDT on July 27, 2016 (GMT -0400)
Jourdan Acres | | Change Station
Active Advisory: Heat Advisory Active Notice: Record Report, Local Storm Report

Elev 325 ft 35.60 °N, 79.23 °W | Updated 14 seconds ago

Rain
Rain
79.9 °F
Feels Like 86 °F
N
0.0
Wind Variable Wind from NNW
Gusts 0.0 mph

Today
High -- | Low -- °F
--% Chance of Precip.
Yesterday
High -- | Low -- °F
Precip. -- in
Pressure 29.96 in
Visibility 10.0 miles
Clouds Scattered Clouds 3800 ft
Scattered Clouds 6000 ft
Heat Index 86 °F
Dew Point 77 °F
Humidity 92%
Rainfall 0.13 in
Snow Depth Not available.
6:21 AM 8:24 PM
Last Quarter, 41% visible
METAR KTTA 271825Z AUTO 36010KT 10SM SCT038 SCT060 33/23 A2996 RMK AO2 T03280234
Pressure 29.96 in
Visibility 10.0 miles
Clouds Scattered Clouds 3800 ft
Scattered Clouds 6000 ft
Heat Index 86 °F
Dew Point 77 °F
Humidity 92%
Rainfall 0.13 in
Snow Depth Not available.
6:21 AM 8:24 PM
Last Quarter, 41% visible
METAR KTTA 271825Z AUTO 36010KT 10SM SCT038 SCT060 33/23 A2996 RMK AO2 T03280234

10-Day Weather Forecast

Almanac

Astronomy

Jul. 27, 2016 Rise Set
Actual Time
Civil Twilight
Nautical Twilight
Astronomical Twilight
Moon
Length of Visible Light
Length of Day
Tomorrow will be .
, % of the Moon is Illuminated

Today's Extremes

State Highs State Lows

Community

WunderPhotos

Upload Photos

1,927,894 photos uploaded!

WunderBlog® & News

Nearby

Air Quality

  Air Quality AQ Index Pollutant
Not available.

Snow Depth

Station Depth Elevation

Earthquake Activity

City Distance Mag. Time & Date
Minimum magnitude displayed is 2.5.

Coastal Water Temperatures

Place Temperature

Stations

Nearby Weather Stations

Station Location Temp. Windchill Dew Point Humidity Wind Precip. Elev Updated Type
                   

Watches & Warnings

Heat Advisory
Issued: 11:15 AM EDT Jul. 27, 2016 – National Weather Service

... Heat advisory remains in effect until 8 PM EDT this evening...

* temperatures... highs will be in the mid to upper 90s.

* Heat indices... 105 to 109 degrees.

* Impacts... the accumulative effects of the heat and humidity
will lead to an increased risk of heat related illnesses...
especially among vulnerable individuals such as the sick...
the elderly... those exerting themselves outdoors... and those
without air conditioning.

Precautionary/preparedness actions...

A heat advisory means that hot temperatures and high humidity
will create a situation in which heat illnesses are possible.
Drink plenty of fluids... stay in an air-conditioned room... stay
out of the sun... and check up on relatives and neighbors.